Time;durP1;ratioP1;P1;durP2;ratioP2;P2;SDS_P1;SDS_P2;PMS_P1;PMS_P2;Temp;Humidity;BMP_temperature;BMP_pressure;BME280_temperature;BME280_humidity;BME280_pressure;Samples;Min_cycle;Max_cycle;Signal;HPM_P1;HPM_P2
2022/11/04 05:30:35;;;;;;;3.10;0.90;;;11.30;78.00;;;;;;5888883;23;20871;-79
2022/11/04 05:33:01;;;;;;;4.55;1.02;;;11.20;78.20;;;;;;4993842;28;20058;-77
2022/11/04 05:35:27;;;;;;;2.08;1.00;;;11.20;78.40;;;;;;4975826;28;20038;-78
2022/11/04 05:37:55;;;;;;;8.20;1.25;;;11.20;78.40;;;;;;4976729;28;20101;-79
2022/11/04 05:40:21;;;;;;;4.78;1.13;;;11.10;78.50;;;;;;4976623;28;20027;-79
2022/11/04 05:42:46;;;;;;;4.00;0.95;;;11.10;78.50;;;;;;4974935;28;20027;-79
2022/11/04 05:45:12;;;;;;;10.75;1.30;;;11.00;78.70;;;;;;4983170;28;20453;-76
2022/11/04 05:47:38;;;;;;;1.85;0.75;;;11.10;78.60;;;;;;4996066;28;20026;-79
2022/11/04 05:50:04;;;;;;;2.80;1.08;;;11.00;78.70;;;;;;4977930;28;20034;-78
2022/11/04 05:52:29;;;;;;;6.35;1.10;;;11.00;78.80;;;;;;4978489;28;20117;-79
2022/11/04 05:54:55;;;;;;;3.13;1.42;;;11.00;78.90;;;;;;4994890;28;20038;-79
2022/11/04 05:57:20;;;;;;;2.03;0.93;;;10.90;79.10;;;;;;4996101;28;20065;-79
2022/11/04 05:59:46;;;;;;;2.72;1.08;;;11.00;79.20;;;;;;4991733;28;20456;-77
2022/11/04 06:02:12;;;;;;;2.83;0.95;;;10.90;79.50;;;;;;4994299;28;20458;-77
2022/11/04 06:04:37;;;;;;;6.32;1.30;;;11.00;79.50;;;;;;4997862;28;20030;-77
2022/11/04 06:07:03;;;;;;;4.25;1.38;;;11.00;79.50;;;;;;4996114;28;20034;-77
2022/11/04 06:09:37;;;;;;;3.55;1.00;;;11.00;79.70;;;;;;4996142;28;20057;-77
2022/11/04 06:12:11;;;;;;;3.13;1.13;;;11.00;79.80;;;;;;5000090;28;20062;-77
2022/11/04 06:14:37;;;;;;;5.30;1.63;;;11.00;79.60;;;;;;4980843;28;20061;-78
2022/11/04 06:17:03;;;;;;;4.78;0.93;;;11.00;79.90;;;;;;4980765;28;20030;-77
2022/11/04 06:19:29;;;;;;;6.07;1.17;;;10.90;79.70;;;;;;4986092;28;20027;-77
2022/11/04 06:21:55;;;;;;;4.25;1.15;;;11.00;79.70;;;;;;4982596;28;20034;-77
2022/11/04 06:24:21;;;;;;;5.80;1.60;;;11.00;79.80;;;;;;4999961;28;20034;-78
2022/11/04 06:26:46;;;;;;;6.50;1.13;;;11.00;80.00;;;;;;4980062;28;20438;-77
2022/11/04 06:29:12;;;;;;;3.63;1.20;;;11.00;80.00;;;;;;5000051;28;20034;-77
2022/11/04 06:31:38;;;;;;;2.47;1.20;;;11.00;80.00;;;;;;4999374;28;20149;-77
2022/11/04 06:34:03;;;;;;;6.68;1.67;;;11.00;80.30;;;;;;4999274;28;20397;-74
2022/11/04 06:36:31;;;;;;;4.63;1.33;;;11.00;80.30;;;;;;4999926;28;20366;-78
2022/11/04 06:38:57;;;;;;;3.13;1.48;;;11.10;80.30;;;;;;4999820;28;20026;-76
2022/11/04 06:41:22;;;;;;;8.00;1.45;;;11.10;80.30;;;;;;4999243;28;20035;-77
2022/11/04 06:43:48;;;;;;;5.30;1.83;;;11.00;80.40;;;;;;5001964;28;20026;-79
2022/11/04 06:46:33;;;;;;;5.72;1.92;;;11.00;80.50;;;;;;5019379;28;20065;-83
2022/11/04 06:48:59;;;;;;;4.03;2.00;;;11.00;80.40;;;;;;5000939;28;20033;-81
2022/11/04 06:51:25;;;;;;;2.88;1.58;;;11.00;80.60;;;;;;4998930;28;20121;-79
2022/11/04 06:53:51;;;;;;;4.00;1.42;;;11.10;80.70;;;;;;4981632;28;20030;-80
2022/11/04 06:56:17;;;;;;;5.40;1.42;;;11.10;80.60;;;;;;4996548;28;20030;-82
2022/11/04 06:58:45;;;;;;;3.05;1.75;;;11.10;80.60;;;;;;4991698;28;20026;-81
2022/11/04 07:01:11;;;;;;;6.78;1.58;;;11.20;80.60;;;;;;4999343;28;20587;-79
2022/11/04 07:03:37;;;;;;;4.10;1.58;;;11.20;80.70;;;;;;4995005;28;20038;-83
2022/11/04 07:06:07;;;;;;;2.92;1.25;;;11.20;80.90;;;;;;4995023;28;20037;-84
2022/11/04 07:08:33;;;;;;;3.72;1.27;;;11.30;80.70;;;;;;4985968;28;20105;-81
2022/11/04 07:10:59;;;;;;;6.13;1.20;;;11.30;80.70;;;;;;4986247;28;20033;-89
2022/11/04 07:13:25;;;;;;;7.90;1.20;;;11.30;80.80;;;;;;4980954;28;20031;-91
2022/11/04 07:15:52;;;;;;;5.88;1.10;;;11.40;80.80;;;;;;4987215;28;20030;-86
2022/11/04 07:18:18;;;;;;;2.80;1.08;;;11.40;80.70;;;;;;4997360;28;20038;-84
2022/11/04 07:20:44;;;;;;;7.30;1.52;;;11.40;80.80;;;;;;4999019;28;20699;-79
2022/11/04 07:23:10;;;;;;;3.95;1.20;;;11.50;80.90;;;;;;4979821;28;20030;-79
2022/11/04 07:25:35;;;;;;;1.95;0.90;;;11.50;81.20;;;;;;4965483;28;20034;-78
2022/11/04 07:28:01;;;;;;;2.25;1.20;;;11.60;81.40;;;;;;4996255;28;20027;-79
2022/11/04 07:30:26;;;;;;;3.95;0.70;;;11.70;81.40;;;;;;4993526;28;20108;-79
2022/11/04 07:32:52;;;;;;;5.13;0.80;;;11.70;81.30;;;;;;4993757;28;20026;-79
2022/11/04 07:35:18;;;;;;;4.25;1.00;;;11.70;81.50;;;;;;4997411;28;20105;-79
2022/11/04 07:37:43;;;;;;;6.57;1.38;;;11.70;81.40;;;;;;4996794;28;20030;-79
2022/11/04 07:40:09;;;;;;;5.93;1.15;;;11.70;81.40;;;;;;4984444;28;20022;-79
2022/11/04 07:42:35;;;;;;;6.70;0.93;;;11.70;81.50;;;;;;4992739;28;20050;-78
2022/11/04 07:45:01;;;;;;;1.90;1.00;;;11.70;81.70;;;;;;4988579;28;20074;-78
2022/11/04 07:47:30;;;;;;;3.67;1.00;;;11.70;81.80;;;;;;4994089;28;20030;-78
2022/11/04 07:49:56;;;;;;;4.25;1.00;;;11.70;81.90;;;;;;4996418;28;20085;-77
2022/11/04 07:52:24;;;;;;;3.60;0.95;;;11.70;82.10;;;;;;4997214;28;20027;-77
2022/11/04 07:54:50;;;;;;;1.90;0.98;;;11.70;82.10;;;;;;4996953;28;20030;-78
2022/11/04 07:57:16;;;;;;;5.35;1.20;;;11.70;81.90;;;;;;4975914;28;20077;-79
2022/11/04 07:59:42;;;;;;;3.25;0.95;;;11.70;82.20;;;;;;4973294;28;20480;-78
2022/11/04 08:02:09;;;;;;;2.38;0.95;;;11.70;82.10;;;;;;4975609;28;20054;-80
2022/11/04 08:04:35;;;;;;;4.32;1.20;;;11.80;82.20;;;;;;4993083;28;20037;-79
2022/11/04 08:07:01;;;;;;;4.35;1.27;;;11.90;82.00;;;;;;4983549;28;20430;-78
2022/11/04 08:09:28;;;;;;;2.15;1.02;;;12.00;81.90;;;;;;4992218;28;20057;-80
2022/11/04 08:11:53;;;;;;;2.85;0.93;;;11.90;82.00;;;;;;4993769;28;20030;-78
2022/11/04 08:14:19;;;;;;;3.63;1.42;;;11.90;81.80;;;;;;4994593;28;20081;-78
2022/11/04 08:16:45;;;;;;;5.53;1.15;;;11.90;81.90;;;;;;4978844;28;20118;-79
2022/11/04 08:19:10;;;;;;;1.52;0.93;;;12.00;81.80;;;;;;4995980;28;20050;-78
2022/11/04 08:21:36;;;;;;;5.85;0.95;;;12.00;82.20;;;;;;4990299;28;20068;-77
2022/11/04 08:24:03;;;;;;;3.10;0.70;;;12.10;81.80;;;;;;4996382;28;20057;-78
2022/11/04 08:26:29;;;;;;;4.38;1.33;;;12.30;81.70;;;;;;4989875;28;20030;-78
2022/11/04 08:28:54;;;;;;;8.90;1.42;;;12.50;81.60;;;;;;4996318;28;20065;-77
2022/11/04 08:31:24;;;;;;;3.25;1.05;;;12.60;81.40;;;;;;4986950;28;20075;-77
2022/11/04 08:33:50;;;;;;;3.28;0.98;;;12.60;81.20;;;;;;4994288;28;20077;-77
2022/11/04 08:36:21;;;;;;;6.75;1.10;;;12.50;81.00;;;;;;4960507;28;20041;-78
2022/11/04 08:38:48;;;;;;;2.90;1.10;;;12.50;80.70;;;;;;4978889;28;20080;-77
2022/11/04 08:41:18;;;;;;;2.83;0.88;;;12.60;80.70;;;;;;4996147;28;20037;-77
2022/11/04 08:43:44;;;;;;;5.15;1.25;;;12.60;80.20;;;;;;4957774;28;20044;-77
2022/11/04 08:46:10;;;;;;;2.38;1.40;;;12.60;80.00;;;;;;5002928;28;20025;-79
2022/11/04 08:48:37;;;;;;;1.52;0.90;;;12.70;79.70;;;;;;4983992;28;20034;-78
2022/11/04 08:51:05;;;;;;;2.65;1.35;;;12.70;80.20;;;;;;4995989;28;20034;-78
2022/11/04 08:53:31;;;;;;;5.18;1.17;;;12.70;79.80;;;;;;4989106;28;20022;-79
2022/11/04 08:55:57;;;;;;;2.25;0.93;;;12.70;79.10;;;;;;4976599;28;20026;-79
2022/11/04 08:58:23;;;;;;;2.92;1.00;;;12.60;79.10;;;;;;4959939;28;20031;-79
2022/11/04 09:00:50;;;;;;;2.30;0.80;;;12.60;79.20;;;;;;4993922;28;20031;-78
2022/11/04 09:03:16;;;;;;;4.80;1.75;;;12.50;79.00;;;;;;4995373;28;20026;-78
2022/11/04 09:05:46;;;;;;;2.33;0.98;;;12.50;78.90;;;;;;4975225;28;20109;-79
2022/11/04 09:08:16;;;;;;;4.93;1.17;;;12.60;79.10;;;;;;4974265;28;20031;-79
2022/11/04 09:10:43;;;;;;;;;;;12.70;79.10;;;;;;4972569;28;20026;-87
2022/11/04 09:13:10;;;;;;;4.15;1.23;;;12.70;79.00;;;;;;4968956;28;19905;-86
2022/11/04 09:15:37;;;;;;;5.72;1.80;;;12.70;78.80;;;;;;4950830;28;20045;-91
2022/11/04 09:18:03;;;;;;;4.97;1.10;;;12.70;78.60;;;;;;4975830;28;20030;-82
2022/11/04 09:20:30;;;;;;;6.25;1.48;;;12.80;78.80;;;;;;4985749;28;20030;-81
2022/11/04 09:22:56;;;;;;;2.25;1.17;;;12.80;78.80;;;;;;4987486;28;20037;-86
2022/11/04 09:25:21;;;;;;;3.78;1.15;;;12.80;78.70;;;;;;4996299;28;20022;-86
2022/11/04 09:27:47;;;;;;;3.47;1.20;;;12.80;78.60;;;;;;4996760;28;20033;-86
2022/11/04 09:30:13;;;;;;;9.40;1.30;;;13.00;78.20;;;;;;4995438;28;20029;-81
2022/11/04 09:32:38;;;;;;;9.98;1.70;;;13.00;77.90;;;;;;4977110;28;20034;-86
2022/11/04 09:35:04;;;;;;;6.40;1.48;;;13.00;77.60;;;;;;4978828;28;20030;-86
2022/11/04 09:37:30;;;;;;;3.85;1.20;;;13.00;77.00;;;;;;4992686;28;20073;-86
2022/11/04 09:39:56;;;;;;;5.03;1.15;;;13.10;76.90;;;;;;4987562;28;20030;-87
2022/11/04 09:42:52;;;;;;;3.63;1.23;;;13.10;76.20;;;;;;4993809;28;20030;-86
2022/11/04 09:45:27;;;;;;;5.22;1.70;;;13.20;76.20;;;;;;4973334;28;20035;-83
2022/11/04 09:48:02;;;;;;;5.43;1.20;;;13.20;75.90;;;;;;4967747;28;20497;-85
2022/11/04 09:50:43;;;;;;;2.40;0.85;;;13.20;75.90;;;;;;4975060;28;20033;-85
2022/11/04 09:53:36;;;;;;;6.13;1.55;;;13.20;75.40;;;;;;4986646;28;20038;-86
2022/11/04 09:56:34;;;;;;;7.13;1.42;;;13.30;75.00;;;;;;4990044;28;20023;-85
2022/11/04 09:59:02;;;;;;;1.52;1.00;;;13.30;74.90;;;;;;4973883;28;20501;-86
2022/11/04 10:01:54;;;;;;;8.27;1.33;;;13.40;75.10;;;;;;4976291;28;20031;-84
2022/11/04 10:05:01;;;;;;;6.05;1.35;;;13.40;74.00;;;;;;4964515;28;20039;-81
2022/11/04 10:07:52;;;;;;;6.78;1.13;;;13.40;73.10;;;;;;4964006;28;20057;-83
2022/11/04 10:10:22;;;;;;;5.72;1.02;;;13.50;73.20;;;;;;4990254;28;20411;-86
2022/11/04 10:13:11;;;;;;;3.22;1.15;;;13.50;72.80;;;;;;4976729;28;20046;-86
2022/11/04 10:16:01;;;;;;;9.40;1.55;;;13.60;72.10;;;;;;4974120;28;20035;-88
2022/11/04 10:18:36;;;;;;;2.28;0.73;;;13.70;71.70;;;;;;4976699;28;20117;-87
2022/11/04 10:21:42;;;;;;;6.45;1.45;;;13.70;71.80;;;;;;4965048;28;20039;-87
2022/11/04 10:24:14;;;;;;;4.32;0.90;;;13.70;71.00;;;;;;4987440;28;20639;-88
2022/11/04 10:26:59;;;;;;;3.65;1.05;;;13.70;71.40;;;;;;4986738;28;20077;-85
2022/11/04 10:29:36;;;;;;;4.82;1.20;;;13.80;70.10;;;;;;4990499;28;20493;-85
2022/11/04 10:32:11;;;;;;;5.35;1.20;;;13.80;69.50;;;;;;4984874;28;20038;-88
2022/11/04 10:34:44;;;;;;;5.30;0.90;;;13.90;69.80;;;;;;4993428;28;20026;-83
2022/11/04 10:37:11;;;;;;;4.38;1.35;;;13.90;68.40;;;;;;4988647;28;20114;-87
2022/11/04 10:39:44;;;;;;;10.02;1.88;;;13.90;68.20;;;;;;4967857;28;20022;-86
2022/11/04 10:42:23;;;;;;;5.28;1.02;;;13.90;68.30;;;;;;4988804;28;20034;-86
2022/11/04 10:44:50;;;;;;;2.85;1.20;;;14.00;68.10;;;;;;4966503;28;20023;-86
2022/11/04 10:47:43;;;;;;;4.03;1.20;;;14.00;67.80;;;;;;4978140;28;20026;-86
2022/11/04 10:50:23;;;;;;;7.63;1.40;;;14.00;67.00;;;;;;4992822;28;20113;-85
2022/11/04 10:52:49;;;;;;;7.88;1.75;;;14.10;67.10;;;;;;4986652;28;20026;-85
2022/11/04 10:55:34;;;;;;;4.38;1.00;;;14.20;67.30;;;;;;4987518;28;20497;-86
2022/11/04 10:58:00;;;;;;;4.72;0.95;;;14.10;67.00;;;;;;4982169;28;20074;-82
2022/11/04 11:00:38;;;;;;;6.78;1.27;;;14.20;67.50;;;;;;4996770;28;20019;-86
2022/11/04 11:03:32;;;;;;;6.97;1.27;;;14.30;68.10;;;;;;4970447;28;20030;-83
2022/11/04 11:06:13;;;;;;;6.75;1.45;;;14.30;68.10;;;;;;4982246;28;20103;-87
2022/11/04 11:08:40;;;;;;;4.68;1.67;;;14.30;68.80;;;;;;4987333;28;20140;-81
2022/11/04 11:11:06;;;;;;;3.55;1.08;;;14.50;68.50;;;;;;4973056;28;20117;-84
2022/11/04 11:13:42;;;;;;;3.58;1.00;;;14.50;67.60;;;;;;4977266;28;20674;-82
2022/11/04 11:16:10;;;;;;;4.93;1.60;;;14.40;67.50;;;;;;4995442;28;20026;-86
2022/11/04 11:18:37;;;;;;;2.78;1.17;;;14.40;65.50;;;;;;4990311;28;20027;-82
2022/11/04 11:21:17;;;;;;;3.92;1.15;;;14.40;65.40;;;;;;4995011;28;20069;-81
2022/11/04 11:23:47;;;;;;;5.82;1.20;;;14.50;65.90;;;;;;4966419;28;20037;-82
2022/11/04 11:26:30;;;;;;;5.38;1.02;;;14.60;66.00;;;;;;4978602;28;20035;-80
2022/11/04 11:29:01;;;;;;;7.70;1.20;;;14.60;65.50;;;;;;4961495;28;20030;-82
2022/11/04 11:31:38;;;;;;;6.13;1.20;;;14.60;65.10;;;;;;4960285;28;20586;-80
2022/11/04 11:34:13;;;;;;;4.65;1.73;;;14.60;65.00;;;;;;4983650;28;20038;-79
2022/11/04 11:36:40;;;;;;;2.78;1.30;;;14.70;63.30;;;;;;4987492;28;20036;-87
2022/11/04 11:39:12;;;;;;;6.63;1.85;;;14.80;63.60;;;;;;4992519;28;20050;-84
2022/11/04 11:42:05;;;;;;;4.95;1.27;;;14.80;63.10;;;;;;4996143;28;20023;-79
2022/11/04 11:44:45;;;;;;;3.75;1.25;;;14.80;64.30;;;;;;4958768;28;20493;-79
2022/11/04 11:47:42;;;;;;;5.28;1.73;;;14.80;64.80;;;;;;4967350;28;20113;-81
2022/11/04 11:50:15;;;;;;;2.53;1.00;;;14.80;63.80;;;;;;4960662;28;20035;-81
2022/11/04 11:52:43;;;;;;;2.45;1.25;;;14.80;63.50;;;;;;4978034;28;20397;-81
2022/11/04 11:55:17;;;;;;;3.83;1.38;;;14.70;63.50;;;;;;4978659;28;20035;-79
2022/11/04 11:57:54;;;;;;;4.30;1.13;;;14.70;63.70;;;;;;4979876;28;20031;-76
2022/11/04 12:00:27;;;;;;;4.90;1.20;;;14.70;64.20;;;;;;4996141;28;20034;-81
2022/11/04 12:03:20;;;;;;;7.20;1.85;;;14.60;64.30;;;;;;4978472;28;20026;-79
2022/11/04 12:05:55;;;;;;;3.70;1.60;;;14.70;64.80;;;;;;4992500;28;20034;-79
2022/11/04 12:08:35;;;;;;;5.07;1.52;;;14.80;64.40;;;;;;5000453;28;20034;-78
2022/11/04 12:11:30;;;;;;;5.20;1.85;;;14.80;63.20;;;;;;4991642;28;20034;-83
2022/11/04 12:14:01;;;;;;;6.53;1.10;;;14.80;63.40;;;;;;4978496;28;20031;-82
2022/11/04 12:16:38;;;;;;;5.30;1.15;;;14.80;62.70;;;;;;4963483;28;20033;-79
2022/11/04 12:19:19;;;;;;;9.63;1.80;;;14.80;62.80;;;;;;4976923;28;20035;-79
2022/11/04 12:22:01;;;;;;;4.97;1.23;;;14.80;62.30;;;;;;4997826;28;20437;-77
2022/11/04 12:25:01;;;;;;;5.95;1.30;;;14.70;61.60;;;;;;4997778;28;20062;-82
2022/11/04 12:27:49;;;;;;;7.43;1.17;;;14.60;61.90;;;;;;4978348;28;20046;-77
2022/11/04 12:30:23;;;;;;;7.97;1.60;;;14.70;61.60;;;;;;4994640;28;20061;-76
2022/11/04 12:32:58;;;;;;;5.60;1.27;;;14.80;61.80;;;;;;4996766;28;20069;-78
2022/11/04 12:35:26;;;;;;;4.07;1.42;;;14.80;62.40;;;;;;4989583;28;20031;-79
2022/11/04 12:38:20;;;;;;;7.40;1.80;;;15.00;62.10;;;;;;4977329;28;20034;-86
2022/11/04 12:41:01;;;;;;;6.95;1.33;;;15.10;60.50;;;;;;4959936;28;20031;-86
2022/11/04 12:44:01;;;;;;;7.38;1.15;;;15.20;62.50;;;;;;4973622;28;20520;-77
2022/11/04 12:46:43;;;;;;;3.88;1.27;;;15.20;61.70;;;;;;4993785;28;20026;-76
2022/11/04 12:49:20;;;;;;;5.72;1.67;;;15.20;61.90;;;;;;4992092;28;20746;-77
2022/11/04 12:52:21;;;;;;;6.28;1.55;;;15.00;60.80;;;;;;4991240;28;20018;-84
2022/11/04 12:55:04;;;;;;;5.65;1.25;;;15.10;61.20;;;;;;4899414;28;20474;-82
2022/11/04 12:57:39;;;;;;;6.60;1.90;;;15.10;61.40;;;;;;4967814;28;20026;-79
2022/11/04 13:00:13;;;;;;;3.70;1.27;;;15.30;61.60;;;;;;4987507;28;20613;-79
2022/11/04 13:02:44;;;;;;;4.00;1.30;;;15.40;60.50;;;;;;4966618;28;20023;-79
2022/11/04 13:05:34;;;;;;;3.85;1.25;;;15.40;60.20;;;;;;4968313;28;20534;-79
2022/11/04 13:08:27;;;;;;;8.57;1.85;;;15.60;61.20;;;;;;4984040;28;20027;-79
2022/11/04 13:11:21;;;;;;;7.78;1.50;;;15.60;60.70;;;;;;4989244;28;20034;-78
2022/11/04 13:14:04;;;;;;;7.10;1.27;;;15.50;59.80;;;;;;4965233;28;20025;-79
2022/11/04 13:16:34;;;;;;;11.07;1.60;;;15.50;60.10;;;;;;4985817;28;20513;-81
2022/11/04 13:19:00;;;;;;;3.58;0.95;;;15.30;59.10;;;;;;4984802;28;20386;-79
2022/11/04 13:21:35;;;;;;;8.70;1.73;;;15.20;60.20;;;;;;4985575;28;20038;-79
2022/11/04 13:24:03;;;;;;;8.63;2.78;;;15.00;60.70;;;;;;4983752;28;20022;-79
2022/11/04 13:26:29;;;;;;;4.65;1.75;;;15.00;61.60;;;;;;4964340;28;20359;-79
2022/11/04 13:29:09;;;;;;;8.15;2.20;;;14.90;61.20;;;;;;4972028;28;20419;-78
2022/11/04 13:31:50;;;;;;;5.20;1.33;;;14.90;62.00;;;;;;4959586;28;20082;-78
2022/11/04 13:34:31;;;;;;;3.47;1.00;;;15.00;61.60;;;;;;4962661;28;20118;-78
2022/11/04 13:37:16;;;;;;;4.75;1.40;;;15.20;61.90;;;;;;4976350;28;20118;-79
2022/11/04 13:39:48;;;;;;;2.78;1.10;;;15.30;61.90;;;;;;4977110;28;20030;-80
2022/11/04 13:42:22;;;;;;;4.07;1.20;;;15.40;62.00;;;;;;4987195;28;20026;-80
2022/11/04 13:44:52;;;;;;;4.15;1.70;;;15.40;62.60;;;;;;4984333;28;20035;-80
2022/11/04 13:47:36;;;;;;;4.53;1.20;;;15.40;61.90;;;;;;4959040;28;20038;-79
2022/11/04 13:50:03;;;;;;;4.20;1.40;;;15.30;61.80;;;;;;4976811;28;20030;-79
2022/11/04 13:52:35;;;;;;;2.65;1.10;;;15.20;61.60;;;;;;4985566;28;20026;-80
2022/11/04 13:55:04;;;;;;;2.08;0.93;;;15.10;61.50;;;;;;4990618;28;20069;-81
2022/11/04 13:57:34;;;;;;;8.20;1.80;;;15.10;60.30;;;;;;4986528;28;20040;-82
2022/11/04 14:00:12;;;;;;;6.43;1.00;;;15.10;60.40;;;;;;4972716;28;20057;-79
2022/11/04 14:02:40;;;;;;;6.18;1.33;;;15.10;60.80;;;;;;4978236;28;20030;-77
2022/11/04 14:05:33;;;;;;;7.07;1.25;;;15.10;60.40;;;;;;4973403;28;20513;-78
2022/11/04 14:08:01;;;;;;;2.08;1.15;;;15.20;60.80;;;;;;4989282;28;20469;-80
2022/11/04 14:10:48;;;;;;;1.98;0.82;;;15.20;60.40;;;;;;4971375;28;20034;-79
2022/11/04 14:13:26;;;;;;;4.57;1.20;;;15.30;60.60;;;;;;4967561;28;20181;-79
2022/11/04 14:16:09;;;;;;;8.68;1.40;;;15.30;60.80;;;;;;4957787;28;20031;-78
2022/11/04 14:18:38;;;;;;;4.35;1.20;;;15.20;60.10;;;;;;4992705;28;20034;-77
2022/11/04 14:21:09;;;;;;;3.15;0.88;;;15.10;60.10;;;;;;4977696;28;20114;-78
2022/11/04 14:23:37;;;;;;;4.53;1.33;;;15.10;60.30;;;;;;4972273;28;20049;-77
2022/11/04 14:26:16;;;;;;;3.80;1.20;;;15.10;60.50;;;;;;4981074;28;20109;-78
2022/11/04 14:28:45;;;;;;;7.63;1.13;;;15.10;59.50;;;;;;4973083;28;20030;-77
2022/11/04 14:31:14;;;;;;;1.40;0.75;;;15.10;59.70;;;;;;4960634;28;20100;-78
2022/11/04 14:33:56;;;;;;;5.95;0.90;;;15.10;60.00;;;;;;4997098;28;20034;-78
2022/11/04 14:36:22;;;;;;;4.18;1.23;;;15.10;59.80;;;;;;4989601;28;20050;-78
2022/11/04 14:38:59;;;;;;;8.00;1.52;;;15.10;60.40;;;;;;4990338;28;20034;-78
2022/11/04 14:41:28;;;;;;;4.40;0.98;;;15.00;60.60;;;;;;4964259;28;20228;-78
2022/11/04 14:43:57;;;;;;;1.27;0.70;;;15.00;60.80;;;;;;4993411;28;20038;-79
2022/11/04 14:46:28;;;;;;;4.25;0.80;;;15.00;60.80;;;;;;4993323;28;20033;-80
2022/11/04 14:48:56;;;;;;;5.30;1.10;;;15.10;61.20;;;;;;4974084;28;20035;-78
2022/11/04 14:51:28;;;;;;;4.32;1.13;;;15.10;61.10;;;;;;4991505;28;20022;-78
2022/11/04 14:54:04;;;;;;;2.05;1.33;;;15.10;61.70;;;;;;4987165;28;20027;-81
2022/11/04 14:56:30;;;;;;;3.25;1.10;;;15.10;61.80;;;;;;4996347;28;20057;-76
2022/11/04 14:59:06;;;;;;;2.42;0.90;;;15.20;62.20;;;;;;4968897;28;20031;-76
2022/11/04 15:01:39;;;;;;;2.90;1.00;;;15.20;61.50;;;;;;4974456;28;20058;-81
2022/11/04 15:04:13;;;;;;;3.03;0.95;;;15.10;60.70;;;;;;4988586;28;20030;-76
2022/11/04 15:06:39;;;;;;;3.95;1.13;;;15.10;60.70;;;;;;4991533;28;20089;-77
2022/11/04 15:09:19;;;;;;;1.60;0.70;;;15.10;61.20;;;;;;4979795;28;20029;-76
2022/11/04 15:14:29;;;;;;;2.92;0.88;;;15.00;60.50;;;;;;4999462;28;20060;-77
2022/11/04 15:16:57;;;;;;;1.85;1.10;;;15.00;60.60;;;;;;4997751;28;20102;-77
2022/11/04 15:19:32;;;;;;;1.83;0.80;;;14.90;60.50;;;;;;4998883;28;20037;-76
2022/11/04 15:22:00;;;;;;;3.50;0.93;;;14.90;61.10;;;;;;4981201;28;20054;-77
2022/11/04 15:24:26;;;;;;;7.68;1.00;;;14.80;61.60;;;;;;4993147;28;20034;-76
2022/11/04 15:26:56;;;;;;;3.35;1.00;;;14.80;61.40;;;;;;4960459;28;20023;-77
2022/11/04 15:29:23;;;;;;;4.32;1.40;;;14.80;61.80;;;;;;4978035;28;20500;-77
2022/11/04 15:31:58;;;;;;;2.92;0.80;;;14.70;62.40;;;;;;4961015;28;20043;-77
2022/11/04 15:34:25;;;;;;;7.07;0.80;;;14.70;62.70;;;;;;4977314;28;20037;-76
2022/11/04 15:36:53;;;;;;;4.85;1.10;;;14.60;62.60;;;;;;4998929;28;20030;-77
2022/11/04 15:39:44;;;;;;;3.20;1.13;;;14.70;62.10;;;;;;4998108;28;20101;-77
2022/11/04 15:42:42;;;;;;;1.80;0.80;;;14.60;62.60;;;;;;4998134;28;20026;-77
2022/11/04 15:45:26;;;;;;;4.43;1.02;;;14.70;62.60;;;;;;4981152;28;20097;-77
2022/11/04 15:48:27;;;;;;;2.58;0.98;;;14.60;62.50;;;;;;4998415;28;20033;-77
2022/11/04 15:51:20;;;;;;;2.88;0.85;;;14.60;62.90;;;;;;4980395;28;20035;-77
2022/11/04 15:54:04;;;;;;;3.05;0.70;;;14.60;63.20;;;;;;4987592;28;20026;-77
2022/11/04 15:56:34;;;;;;;3.20;1.45;;;14.60;63.50;;;;;;4979129;28;20086;-77
2022/11/04 15:59:00;;;;;;;3.00;0.80;;;14.50;63.30;;;;;;4980231;28;20026;-77
2022/11/04 16:01:27;;;;;;;6.93;1.27;;;14.50;62.60;;;;;;4998373;28;20129;-77
2022/11/04 16:03:59;;;;;;;0.90;0.80;;;14.40;63.00;;;;;;4980488;28;20034;-77
2022/11/04 16:06:34;;;;;;;1.52;0.73;;;14.40;63.20;;;;;;4980447;28;20034;-76
2022/11/04 16:09:03;;;;;;;2.90;1.35;;;14.30;63.40;;;;;;4982317;28;20090;-76
2022/11/04 16:11:28;;;;;;;2.85;1.20;;;14.30;63.60;;;;;;4975954;28;20038;-77
2022/11/04 16:14:18;;;;;;;4.68;1.08;;;14.20;63.50;;;;;;4993489;28;20030;-77
2022/11/04 16:16:49;;;;;;;3.70;0.88;;;14.10;63.50;;;;;;4969137;28;20031;-76
2022/11/04 16:19:24;;;;;;;3.03;0.90;;;14.00;64.10;;;;;;4986704;28;20027;-76
2022/11/04 16:22:09;;;;;;;7.05;1.15;;;14.00;64.30;;;;;;4986115;28;20359;-86
2022/11/04 16:24:40;;;;;;;4.05;1.08;;;14.00;64.50;;;;;;4976011;28;20496;-77
2022/11/04 16:27:10;;;;;;;3.60;1.42;;;13.90;64.80;;;;;;4971562;28;20042;-77
2022/11/04 16:29:37;;;;;;;2.20;0.80;;;13.90;65.00;;;;;;4978836;28;20038;-78
2022/11/04 16:32:25;;;;;;;3.90;1.08;;;13.90;65.80;;;;;;4978847;28;20050;-77
2022/11/04 16:34:53;;;;;;;2.00;0.85;;;13.80;66.00;;;;;;4995128;28;20026;-78
2022/11/04 16:37:18;;;;;;;7.85;1.17;;;13.80;66.20;;;;;;4981917;28;20218;-78
2022/11/04 16:39:44;;;;;;;2.22;1.02;;;13.70;67.00;;;;;;4983483;28;20049;-77
2022/11/04 16:42:13;;;;;;;4.28;1.45;;;13.70;67.50;;;;;;4983470;28;20039;-89
2022/11/04 16:44:38;;;;;;;9.20;1.90;;;13.60;67.80;;;;;;4994176;28;20026;-90
2022/11/04 16:47:31;;;;;;;7.13;3.13;;;13.60;67.80;;;;;;4989497;28;20565;-86
2022/11/04 16:50:14;;;;;;;14.95;6.57;;;13.50;68.40;;;;;;4983201;28;20045;-86
2022/11/04 16:52:39;;;;;;;32.30;11.35;;;13.40;68.70;;;;;;4988487;28;20036;-84
2022/11/04 16:55:06;;;;;;;33.40;12.93;;;13.40;68.90;;;;;;4982542;28;20034;-77
2022/11/04 16:57:32;;;;;;;35.78;15.25;;;13.30;69.00;;;;;;4976977;28;20497;-79
2022/11/04 16:59:57;;;;;;;39.72;14.90;;;13.30;69.20;;;;;;4978152;28;20023;-85
2022/11/04 17:02:29;;;;;;;26.20;9.75;;;13.20;69.70;;;;;;4986850;28;20078;-83
2022/11/04 17:04:55;;;;;;;20.20;7.90;;;13.20;70.00;;;;;;4969336;28;20161;-82
2022/11/04 17:07:21;;;;;;;10.00;5.68;;;13.20;70.20;;;;;;4979010;28;20045;-80
2022/11/04 17:09:47;;;;;;;10.02;4.38;;;13.20;70.20;;;;;;4974255;28;20027;-84
2022/11/04 17:12:13;;;;;;;14.68;6.05;;;13.10;70.60;;;;;;4983813;28;20042;-81
2022/11/04 17:14:39;;;;;;;12.90;6.35;;;13.10;70.60;;;;;;4989077;28;20104;-85
2022/11/04 17:17:07;;;;;;;10.27;6.10;;;13.00;70.90;;;;;;4988811;28;20030;-83
2022/11/04 17:19:33;;;;;;;12.55;4.60;;;13.00;70.60;;;;;;4985023;28;20031;-85
2022/11/04 17:22:01;;;;;;;16.85;7.70;;;13.00;71.00;;;;;;4969765;28;20057;-88
2022/11/04 17:24:27;;;;;;;16.70;6.03;;;12.90;71.00;;;;;;4992028;28;20027;-87
2022/11/04 17:26:53;;;;;;;8.93;4.95;;;12.90;71.30;;;;;;4987184;28;20401;-87
2022/11/04 17:29:19;;;;;;;7.85;4.10;;;12.90;71.20;;;;;;4985866;28;20029;-88
2022/11/04 17:31:44;;;;;;;17.73;5.80;;;12.80;71.10;;;;;;4977463;28;20874;-86
2022/11/04 17:34:10;;;;;;;26.00;11.45;;;12.80;71.30;;;;;;4984434;28;20030;-86
2022/11/04 17:36:36;;;;;;;33.35;14.52;;;12.80;71.50;;;;;;4988636;28;20113;-87
2022/11/04 17:39:01;;;;;;;38.50;17.60;;;12.70;71.50;;;;;;4982662;28;20023;-89
2022/11/04 17:44:11;;;;;;;31.23;14.40;;;12.70;71.60;;;;;;4990779;28;20074;-76
2022/11/04 17:46:37;;;;;;;23.83;10.65;;;12.70;72.20;;;;;;4984346;28;20469;-80
2022/11/04 17:49:14;;;;;;;17.10;6.72;;;12.80;72.10;;;;;;4978566;28;20129;-81
2022/11/04 17:51:43;;;;;;;13.68;5.75;;;12.80;72.60;;;;;;4982046;28;20050;-77
2022/11/04 17:54:09;;;;;;;11.85;5.65;;;12.80;72.10;;;;;;4983001;28;20089;-83
2022/11/04 17:56:37;;;;;;;14.95;4.95;;;12.80;72.30;;;;;;4981675;28;20027;-81
2022/11/04 17:59:03;;;;;;;9.75;3.65;;;12.80;72.10;;;;;;4973562;28;20073;-80
2022/11/04 18:01:31;;;;;;;7.35;3.00;;;12.80;72.50;;;;;;4976325;28;20083;-78
2022/11/04 18:03:57;;;;;;;5.40;2.63;;;12.80;72.40;;;;;;4973958;28;20722;-77
2022/11/04 18:06:24;;;;;;;6.43;2.60;;;12.80;72.00;;;;;;4987258;28;20080;-80
2022/11/04 18:08:55;;;;;;;3.47;2.00;;;12.80;72.00;;;;;;4965283;28;20034;-79
2022/11/04 18:14:06;;;;;;;14.05;2.90;;;12.80;72.40;;;;;;4981534;28;20461;-80
2022/11/04 18:16:32;;;;;;;6.90;2.90;;;12.80;72.20;;;;;;4985072;28;20030;-80
2022/11/04 18:18:58;;;;;;;9.52;2.80;;;12.80;72.30;;;;;;4984728;28;20034;-81
2022/11/04 18:21:25;;;;;;;4.30;2.47;;;12.80;72.40;;;;;;4984581;28;20050;-78
2022/11/04 18:23:51;;;;;;;7.38;3.38;;;12.80;72.20;;;;;;4972963;28;20038;-78
2022/11/04 18:26:17;;;;;;;14.05;5.40;;;12.80;72.00;;;;;;4975681;28;20113;-78
2022/11/04 18:28:43;;;;;;;10.95;5.70;;;12.80;71.90;;;;;;4993700;28;20038;-79
2022/11/04 18:31:14;;;;;;;18.38;5.75;;;12.80;72.60;;;;;;4978077;28;20046;-79
2022/11/04 18:33:42;;;;;;;10.60;5.22;;;12.70;73.00;;;;;;4989542;28;20424;-81
2022/11/04 18:36:11;;;;;;;14.27;7.60;;;12.60;73.20;;;;;;4977824;28;20118;-87
2022/11/04 18:38:37;;;;;;;21.25;9.75;;;12.50;73.10;;;;;;4971388;28;20026;-82
2022/11/04 18:41:03;;;;;;;19.30;10.73;;;12.50;73.40;;;;;;4995828;28;20433;-79
2022/11/04 18:43:29;;;;;;;15.20;7.63;;;12.40;73.50;;;;;;4980065;28;20023;-78
2022/11/04 18:46:05;;;;;;;11.60;6.60;;;12.40;73.60;;;;;;4993210;28;20031;-79
2022/11/04 18:48:32;;;;;;;8.93;3.85;;;12.30;73.60;;;;;;4972255;28;20051;-80